Terminal Aerodrome Forecast
Issued by NWS Wilmington, OH

Current Version | Previous Version | Graphics & Text | Print | Product List | Glossary On
Versions: 1 2 3 4 5 6 7 8 9 10 11 12 13 14 15
901
FTUS41 KILN 212326
TAFILN
TAF
KILN 212326Z 2200/2224 20008KT P6SM SCT050
     FM220300 24007KT P6SM SCT050
     FM220500 29006KT P6SM SCT050=

USA.gov is the U.S. government's official web portal to all federal, state and local government web resources and services.